createdAt,value
2019-03-04T00:01:23.998Z,1.00
2019-03-04T00:03:54.394Z,1.00
2019-03-04T00:06:24.757Z,1.00
2019-03-04T00:08:55.151Z,1.00
2019-03-04T00:11:25.525Z,1.00
2019-03-04T00:13:55.941Z,1.00
2019-03-04T00:16:27.123Z,1.00
2019-03-04T00:18:57.587Z,1.00
2019-03-04T00:21:27.965Z,1.00
2019-03-04T00:23:58.371Z,1.00
2019-03-04T00:26:28.749Z,1.00
2019-03-04T00:28:59.120Z,1.00
2019-03-04T00:31:29.474Z,1.00
2019-03-04T00:33:59.875Z,1.00
2019-03-04T00:36:30.239Z,1.00
2019-03-04T00:39:00.842Z,1.00
2019-03-04T00:41:31.214Z,1.00
2019-03-04T00:44:01.658Z,1.00
2019-03-04T00:46:32.107Z,1.00
2019-03-04T00:49:02.469Z,1.00
2019-03-04T00:51:32.852Z,1.00
2019-03-04T00:54:03.222Z,1.00
2019-03-04T00:56:33.687Z,1.00
2019-03-04T00:59:04.170Z,1.00
2019-03-04T01:01:34.560Z,1.00
2019-03-04T01:04:04.945Z,99.90
2019-03-04T01:06:35.355Z,99.90
2019-03-04T01:09:09.570Z,99.90
2019-03-04T01:11:40.026Z,99.90
2019-03-04T01:14:10.457Z,99.90
2019-03-04T01:16:40.863Z,99.90
2019-03-04T01:19:11.303Z,99.90
2019-03-04T01:21:41.673Z,99.90
2019-03-04T01:24:12.087Z,99.90
2019-03-04T01:26:42.466Z,99.90
2019-03-04T01:29:12.854Z,99.90
2019-03-04T01:31:43.691Z,99.90
2019-03-04T01:34:14.125Z,99.90
2019-03-04T01:36:44.636Z,99.90
2019-03-04T01:39:15.197Z,99.90
2019-03-04T01:41:45.641Z,99.90
2019-03-04T01:44:16.006Z,99.90
2019-03-04T01:46:46.395Z,99.90
2019-03-04T01:49:16.757Z,99.90
2019-03-04T01:51:47.150Z,99.90
2019-03-04T01:54:17.596Z,99.90
2019-03-04T01:56:48.202Z,99.90
2019-03-04T01:59:18.605Z,99.90
2019-03-04T02:01:48.996Z,99.90
2019-03-04T02:04:19.437Z,99.90
2019-03-04T02:06:49.878Z,99.90
2019-03-04T02:09:20.455Z,99.90
2019-03-04T02:11:50.832Z,99.90
2019-03-04T02:14:21.252Z,99.90
2019-03-04T02:16:51.609Z,99.90
2019-03-04T02:19:21.994Z,99.90
2019-03-04T02:21:52.357Z,99.90
2019-03-04T02:24:27.145Z,99.90
2019-03-04T02:26:59.033Z,99.90
2019-03-04T02:29:29.406Z,99.90
2019-03-04T02:31:59.822Z,99.90
2019-03-04T02:34:30.201Z,99.90
2019-03-04T02:37:00.613Z,99.90
2019-03-04T02:39:31.041Z,99.90
2019-03-04T02:42:01.413Z,99.90
2019-03-04T02:44:31.797Z,99.90
2019-03-04T02:47:02.193Z,99.90
2019-03-04T02:49:32.579Z,99.90
2019-03-04T02:52:02.953Z,99.90
2019-03-04T02:54:33.423Z,99.90
2019-03-04T02:57:03.818Z,99.90
2019-03-04T02:59:34.186Z,99.90
2019-03-04T03:02:06.250Z,99.90
2019-03-04T03:04:36.699Z,99.90
2019-03-04T03:07:07.048Z,99.90
2019-03-04T03:09:37.409Z,99.90
2019-03-04T03:12:07.829Z,99.90
2019-03-04T03:14:38.233Z,99.90
2019-03-04T03:17:08.634Z,99.90
2019-03-04T03:19:39.173Z,99.90
2019-03-04T03:22:09.540Z,99.90
2019-03-04T03:24:39.902Z,99.90
2019-03-04T03:27:10.284Z,99.90
2019-03-04T03:29:40.710Z,99.90
2019-03-04T03:32:11.079Z,99.90
2019-03-04T03:34:41.519Z,99.90
2019-03-04T03:37:11.906Z,99.90
2019-03-04T03:39:43.110Z,99.90
2019-03-04T03:42:13.475Z,99.90
2019-03-04T03:44:43.867Z,99.90
2019-03-04T03:47:14.245Z,99.90
2019-03-04T03:49:44.610Z,99.90
2019-03-04T03:52:15.492Z,99.90
2019-03-04T03:54:45.926Z,99.90
2019-03-04T03:57:16.311Z,99.90
2019-03-04T03:59:46.710Z,99.90
2019-03-04T04:02:17.092Z,99.90
2019-03-04T04:04:47.558Z,99.90
2019-03-04T04:07:17.944Z,99.90
2019-03-04T04:09:48.311Z,99.90
2019-03-04T04:12:18.744Z,99.90
2019-03-04T04:14:49.195Z,99.90
2019-03-04T04:17:19.567Z,99.90
2019-03-04T04:19:52.847Z,99.90
2019-03-04T04:22:21.981Z,99.90
2019-03-04T04:24:52.897Z,99.90
2019-03-04T04:27:23.362Z,99.90
2019-03-04T04:29:53.738Z,99.90
2019-03-04T04:32:24.138Z,99.90
2019-03-04T04:34:54.491Z,99.90
2019-03-04T04:37:24.860Z,99.90
2019-03-04T04:39:55.221Z,99.90
2019-03-04T04:42:25.689Z,99.90
2019-03-04T04:44:56.039Z,99.90
2019-03-04T04:47:26.474Z,99.90
2019-03-04T04:49:56.935Z,99.90
2019-03-04T04:52:27.338Z,99.90
2019-03-04T04:54:57.979Z,99.90
2019-03-04T04:57:28.353Z,99.90
2019-03-04T04:59:58.749Z,99.90
2019-03-04T05:02:29.195Z,99.90
2019-03-04T05:04:59.563Z,99.90
2019-03-04T05:07:29.918Z,99.90
2019-03-04T05:10:00.413Z,99.90
2019-03-04T05:12:30.785Z,99.90
2019-03-04T05:15:01.169Z,99.90
2019-03-04T05:17:31.582Z,99.90
2019-03-04T05:20:01.988Z,99.90
2019-03-04T05:22:32.370Z,99.90
2019-03-04T05:25:02.789Z,99.90
2019-03-04T05:27:33.223Z,99.90
2019-03-04T05:30:07.404Z,99.90
2019-03-04T05:32:37.776Z,99.90
2019-03-04T05:35:08.146Z,99.90
2019-03-04T05:37:38.511Z,99.90
2019-03-04T05:40:11.145Z,99.90
2019-03-04T05:42:41.617Z,99.90
2019-03-04T05:45:13.800Z,99.90
2019-03-04T05:47:44.163Z,99.90
2019-03-04T05:50:15.578Z,99.90
2019-03-04T05:52:45.939Z,99.90
2019-03-04T05:55:16.655Z,99.90
2019-03-04T05:57:47.038Z,99.90
2019-03-04T06:00:19.102Z,99.90
2019-03-04T06:02:49.530Z,99.90
2019-03-04T06:05:19.889Z,99.90
2019-03-04T06:07:56.953Z,99.90
2019-03-04T06:10:27.343Z,99.90
2019-03-04T06:12:58.958Z,99.90
2019-03-04T06:15:29.542Z,99.90
2019-03-04T06:17:59.931Z,99.90
2019-03-04T06:20:30.310Z,99.90
2019-03-04T06:23:00.770Z,99.90
2019-03-04T06:25:31.194Z,99.90
2019-03-04T06:28:01.726Z,99.90
2019-03-04T06:30:32.108Z,99.90
2019-03-04T06:33:02.513Z,99.90
2019-03-04T06:35:32.883Z,99.90
2019-03-04T06:38:03.257Z,99.90
2019-03-04T06:40:33.639Z,99.90
2019-03-04T06:43:04.056Z,99.90
2019-03-04T06:45:34.528Z,99.90
2019-03-04T06:48:04.973Z,99.90
2019-03-04T06:50:52.024Z,99.90
2019-03-04T06:53:54.545Z,99.90
2019-03-04T06:56:49.198Z,99.90
2019-03-04T06:59:32.254Z,99.90
2019-03-04T07:02:07.573Z,99.90
2019-03-04T07:05:12.726Z,99.90
2019-03-04T07:07:43.118Z,99.90
2019-03-04T07:10:13.503Z,99.90
2019-03-04T07:12:43.978Z,99.90
2019-03-04T07:15:14.399Z,99.90
2019-03-04T07:17:44.821Z,99.90
2019-03-04T07:20:15.342Z,99.90
2019-03-04T07:22:45.726Z,99.90
2019-03-04T07:25:16.091Z,99.90
2019-03-04T07:27:46.479Z,99.90
2019-03-04T07:30:16.886Z,99.90
2019-03-04T07:32:47.244Z,99.90
2019-03-04T07:35:17.642Z,99.90
2019-03-04T07:37:49.610Z,99.90
2019-03-04T07:40:22.767Z,99.90
2019-03-04T07:42:53.128Z,99.90
2019-03-04T07:45:23.544Z,99.90
2019-03-04T07:47:53.914Z,99.90
2019-03-04T07:50:24.430Z,99.90
2019-03-04T07:52:58.061Z,99.90
2019-03-04T07:55:28.434Z,99.90
2019-03-04T07:57:58.826Z,99.90
2019-03-04T08:00:29.219Z,99.90
2019-03-04T08:02:59.589Z,99.90
2019-03-04T08:05:31.454Z,99.90
2019-03-04T08:08:01.823Z,99.90
2019-03-04T08:11:09.188Z,99.90
2019-03-04T08:13:46.313Z,99.90
2019-03-04T08:16:16.702Z,99.90
2019-03-04T08:18:47.045Z,1.00
2019-03-04T08:21:17.468Z,99.90
2019-03-04T08:23:47.826Z,1.00
2019-03-04T08:26:18.313Z,99.90
2019-03-04T08:28:48.705Z,1.00
2019-03-04T08:31:19.120Z,99.90
2019-03-04T08:33:49.493Z,99.90
2019-03-04T08:36:19.881Z,1.00
2019-03-04T08:38:50.299Z,99.90
2019-03-04T08:41:20.688Z,99.90
2019-03-04T08:43:51.146Z,1.00
2019-03-04T08:46:21.609Z,1.00
2019-03-04T08:48:51.976Z,1.00
2019-03-04T08:51:22.344Z,1.00
2019-03-04T08:53:52.759Z,1.00
2019-03-04T08:56:23.086Z,1.00
2019-03-04T08:58:53.466Z,1.00
2019-03-04T09:01:23.845Z,1.00
2019-03-04T09:03:54.219Z,1.00
2019-03-04T09:06:24.626Z,1.00
2019-03-04T09:08:55.107Z,1.00
2019-03-04T09:11:25.556Z,99.90
2019-03-04T09:13:55.954Z,1.00
2019-03-04T09:16:26.306Z,1.00
2019-03-04T09:18:56.679Z,1.00
2019-03-04T09:21:27.046Z,99.90
2019-03-04T09:23:57.469Z,99.90
2019-03-04T09:26:27.819Z,99.90
2019-03-04T09:28:58.210Z,1.00
2019-03-04T09:31:47.614Z,99.90
2019-03-04T09:34:17.999Z,99.90
2019-03-04T09:36:48.365Z,99.90
2019-03-04T09:39:18.765Z,99.90
2019-03-04T09:41:52.450Z,99.90
2019-03-04T09:44:22.490Z,1.00
2019-03-04T09:46:54.589Z,1.00
2019-03-04T09:49:25.000Z,99.90
2019-03-04T09:51:55.349Z,1.00
2019-03-04T09:54:25.725Z,99.90
2019-03-04T09:56:56.082Z,1.00
2019-03-04T09:59:26.477Z,99.90
2019-03-04T10:02:06.068Z,12.40
2019-03-04T10:05:02.235Z,99.90
2019-03-04T10:08:12.481Z,99.90
2019-03-04T10:11:09.866Z,99.90
2019-03-04T10:14:18.426Z,39.00
2019-03-04T10:17:33.623Z,1.00
2019-03-04T10:20:48.931Z,99.90
2019-03-04T10:23:30.811Z,1.00
2019-03-04T10:26:23.563Z,99.90
2019-03-04T10:29:31.341Z,99.90
2019-03-04T10:32:38.469Z,99.90
2019-03-04T10:35:40.858Z,99.90
2019-03-04T10:38:43.001Z,74.90
2019-03-04T10:41:41.325Z,99.90
2019-03-04T10:44:54.591Z,1.00
2019-03-04T10:47:24.988Z,1.00
2019-03-04T10:49:55.367Z,30.00
2019-03-04T10:52:25.770Z,99.90
2019-03-04T10:54:56.195Z,99.90
2019-03-04T10:57:26.558Z,99.90
2019-03-04T10:59:56.945Z,33.90
2019-03-04T11:02:27.362Z,38.80
2019-03-04T11:04:57.751Z,99.90
2019-03-04T11:07:28.201Z,99.90
2019-03-04T11:09:58.630Z,1.00
2019-03-04T11:12:29.035Z,99.90
2019-03-04T11:14:59.494Z,29.70
2019-03-04T11:17:29.865Z,1.00
2019-03-04T11:20:00.341Z,1.00
2019-03-04T11:22:30.726Z,1.00
2019-03-04T11:25:01.141Z,1.00
2019-03-04T11:27:31.506Z,1.00
2019-03-04T11:30:01.894Z,1.00
2019-03-04T11:32:32.312Z,99.90
2019-03-04T11:35:02.733Z,99.90
2019-03-04T11:37:33.081Z,99.90
2019-03-04T11:40:08.702Z,99.90
2019-03-04T11:42:39.087Z,1.00
2019-03-04T11:45:12.419Z,99.90
2019-03-04T11:47:42.769Z,1.00
2019-03-04T11:50:14.353Z,99.90
2019-03-04T11:52:44.719Z,1.00
2019-03-04T11:55:15.353Z,1.00
2019-03-04T11:57:45.761Z,1.00
2019-03-04T12:00:20.625Z,99.90
2019-03-04T12:02:50.989Z,99.90
2019-03-04T12:05:21.354Z,99.90
2019-03-04T12:07:51.714Z,1.00
2019-03-04T12:10:22.785Z,1.00
2019-03-04T12:12:53.187Z,99.90
2019-03-04T12:15:23.573Z,99.90
2019-03-04T12:17:53.951Z,99.90
2019-03-04T12:20:25.310Z,99.90
2019-03-04T12:22:55.716Z,99.90
2019-03-04T12:25:26.088Z,99.50
2019-03-04T12:27:56.454Z,1.00
2019-03-04T12:30:26.857Z,1.00
2019-03-04T12:32:57.189Z,1.00
2019-03-04T12:35:27.614Z,1.00
2019-03-04T12:37:58.167Z,1.00
2019-03-04T12:40:28.595Z,1.00
2019-03-04T12:42:58.936Z,1.00
2019-03-04T12:45:34.461Z,1.00
2019-03-04T12:48:01.437Z,99.90
2019-03-04T12:50:31.867Z,99.90
2019-03-04T12:53:02.366Z,99.90
2019-03-04T12:55:32.751Z,99.90
2019-03-04T12:58:04.693Z,1.00
2019-03-04T13:00:35.237Z,1.00
2019-03-04T13:03:06.916Z,99.90
2019-03-04T13:05:37.267Z,99.90
2019-03-04T13:08:07.654Z,99.90
2019-03-04T13:10:37.998Z,99.90
2019-03-04T13:13:08.358Z,99.90
2019-03-04T13:15:38.777Z,99.90
2019-03-04T13:18:09.220Z,99.90
2019-03-04T13:20:39.590Z,99.90
2019-03-04T13:23:09.977Z,99.90
2019-03-04T13:25:40.344Z,99.90
2019-03-04T13:28:10.761Z,99.90
2019-03-04T13:30:41.194Z,99.90
2019-03-04T13:33:11.580Z,99.90
2019-03-04T13:35:41.980Z,99.90
2019-03-04T13:38:12.462Z,99.90
2019-03-04T13:40:42.840Z,99.90
2019-03-04T13:43:13.195Z,99.90
2019-03-04T13:45:43.573Z,99.90
2019-03-04T13:48:13.975Z,99.90
2019-03-04T13:50:44.411Z,99.90
2019-03-04T13:53:14.858Z,99.90
2019-03-04T13:55:45.235Z,99.90
2019-03-04T13:58:15.629Z,99.90
2019-03-04T14:00:45.998Z,99.90
2019-03-04T14:03:16.395Z,99.90
2019-03-04T14:05:47.133Z,99.90
2019-03-04T14:08:17.621Z,99.90
2019-03-04T14:10:47.996Z,99.90
2019-03-04T14:13:18.376Z,99.90
2019-03-04T14:15:48.781Z,99.90
2019-03-04T14:18:19.148Z,99.90
2019-03-04T14:20:49.534Z,99.90
2019-03-04T14:23:19.918Z,99.90
2019-03-04T14:25:50.270Z,99.90
2019-03-04T14:28:20.657Z,99.90
2019-03-04T14:30:51.037Z,99.90
2019-03-04T14:33:21.425Z,99.90
2019-03-04T14:35:51.804Z,99.90
2019-03-04T14:38:22.166Z,99.90
2019-03-04T14:40:52.543Z,99.90
2019-03-04T14:43:22.907Z,99.90
2019-03-04T14:45:54.368Z,99.90
2019-03-04T14:48:24.946Z,99.90
2019-03-04T14:50:55.310Z,99.90
2019-03-04T14:53:25.762Z,99.90
2019-03-04T14:55:56.182Z,99.90
2019-03-04T14:58:26.584Z,99.90
2019-03-04T15:00:56.941Z,99.90
2019-03-04T15:03:27.304Z,99.90
2019-03-04T15:06:06.519Z,99.90
2019-03-04T15:08:29.762Z,99.90
2019-03-04T15:11:00.166Z,99.90
2019-03-04T15:13:30.515Z,99.90
2019-03-04T15:16:03.662Z,99.90
2019-03-04T15:18:35.065Z,99.90
2019-03-04T15:21:06.495Z,99.90
2019-03-04T15:23:36.883Z,99.90
2019-03-04T15:26:07.273Z,99.90
2019-03-04T15:28:37.746Z,99.90
2019-03-04T15:31:08.206Z,99.90
2019-03-04T15:33:38.728Z,99.90
2019-03-04T15:36:09.188Z,99.90
2019-03-04T15:38:39.665Z,99.90
2019-03-04T15:41:10.173Z,99.90
2019-03-04T15:43:40.669Z,99.90
2019-03-04T15:46:11.070Z,99.90
2019-03-04T15:48:41.473Z,1.00
2019-03-04T15:51:11.879Z,1.00
2019-03-04T15:53:43.574Z,99.90
2019-03-04T15:56:14.311Z,99.90
2019-03-04T15:58:44.726Z,1.00
2019-03-04T16:01:15.557Z,1.00
2019-03-04T16:03:46.179Z,1.00
2019-03-04T16:06:16.604Z,1.00
2019-03-04T16:08:47.050Z,1.00
2019-03-04T16:11:17.556Z,1.00
2019-03-04T16:13:53.997Z,1.00
2019-03-04T16:16:20.085Z,18.70
2019-03-04T16:18:50.510Z,66.40
2019-03-04T16:21:20.954Z,93.10
2019-03-04T16:23:51.376Z,95.40
2019-03-04T16:26:21.805Z,99.50
2019-03-04T16:28:52.263Z,99.20
2019-03-04T16:31:22.720Z,96.80
2019-03-04T16:33:53.154Z,94.80
2019-03-04T16:36:23.580Z,78.80
2019-03-04T16:38:54.059Z,89.70
2019-03-04T16:41:24.463Z,81.70
2019-03-04T16:43:54.923Z,83.50
2019-03-04T16:46:25.374Z,95.80
2019-03-04T16:48:55.841Z,70.20
2019-03-04T16:51:26.224Z,84.80
2019-03-04T16:53:56.750Z,92.80
2019-03-04T16:56:27.203Z,91.80
2019-03-04T16:58:57.700Z,96.90
2019-03-04T17:01:28.234Z,91.60
2019-03-04T17:03:58.638Z,92.50
2019-03-04T17:06:29.046Z,99.90
2019-03-04T17:09:00.089Z,93.40
2019-03-04T17:11:30.515Z,99.90
2019-03-04T17:14:00.989Z,98.40
2019-03-04T17:16:31.453Z,93.10
2019-03-04T17:19:01.837Z,92.50
2019-03-04T17:21:32.390Z,80.90
2019-03-04T17:24:02.832Z,72.40
2019-03-04T17:26:33.426Z,78.80
2019-03-04T17:29:03.887Z,76.80
2019-03-04T17:31:34.282Z,67.00
2019-03-04T17:34:04.698Z,34.30
2019-03-04T17:36:35.091Z,81.40
2019-03-04T17:39:07.509Z,78.60
2019-03-04T17:41:37.977Z,98.20
2019-03-04T17:44:08.417Z,94.70
2019-03-04T17:46:38.894Z,97.70
2019-03-04T17:49:09.350Z,90.80
2019-03-04T17:51:39.793Z,75.50
2019-03-04T17:54:10.299Z,87.80
2019-03-04T17:56:40.749Z,93.60
2019-03-04T17:59:11.134Z,90.60
2019-03-04T18:01:41.576Z,89.90
2019-03-04T18:04:12.043Z,71.50
2019-03-04T18:06:42.483Z,84.40
2019-03-04T18:09:13.817Z,83.30
2019-03-04T18:11:44.246Z,70.60
2019-03-04T18:14:14.929Z,57.90
2019-03-04T18:16:45.388Z,57.20
2019-03-04T18:19:15.810Z,66.60
2019-03-04T18:21:46.263Z,61.30
2019-03-04T18:24:17.231Z,52.70
2019-03-04T18:27:00.752Z,18.90
2019-03-04T18:29:41.301Z,24.60
2019-03-04T18:32:46.951Z,11.90
2019-03-04T18:35:49.143Z,26.10
2019-03-04T18:38:45.819Z,8.50
2019-03-04T18:41:48.053Z,6.70
2019-03-04T18:44:43.446Z,12.50
2019-03-04T18:47:31.951Z,4.30
2019-03-04T18:50:02.387Z,15.30
2019-03-04T18:52:32.904Z,21.40
2019-03-04T18:55:03.354Z,7.80
2019-03-04T18:57:33.847Z,14.20
2019-03-04T19:00:04.763Z,9.60
2019-03-04T19:02:35.211Z,5.20
2019-03-04T19:05:05.796Z,3.50
2019-03-04T19:07:36.201Z,1.00
2019-03-04T19:10:07.379Z,1.00
2019-03-04T19:12:37.774Z,1.00
2019-03-04T19:15:08.560Z,1.00
2019-03-04T19:17:39.002Z,1.00
2019-03-04T19:20:12.059Z,13.30
2019-03-04T19:22:42.509Z,29.60
2019-03-04T19:25:14.239Z,42.70
2019-03-04T19:27:44.668Z,35.00
2019-03-04T19:30:15.541Z,39.90
2019-03-04T19:32:46.190Z,48.00
2019-03-04T19:35:16.652Z,86.40
2019-03-04T19:37:47.154Z,95.00
2019-03-04T19:40:17.660Z,99.90
2019-03-04T19:42:48.151Z,99.90
2019-03-04T19:45:18.602Z,99.90
2019-03-04T19:47:49.075Z,99.90
2019-03-04T19:50:19.668Z,90.60
2019-03-04T19:52:50.134Z,96.40
2019-03-04T19:55:20.643Z,99.50
2019-03-04T19:57:51.158Z,84.00
2019-03-04T20:00:25.048Z,99.90
2019-03-04T20:02:55.715Z,99.90
2019-03-04T20:05:27.955Z,99.90
2019-03-04T20:07:58.366Z,99.20
2019-03-04T20:10:29.870Z,99.90
2019-03-04T20:13:00.285Z,99.90
2019-03-04T20:15:30.747Z,99.90
2019-03-04T20:18:01.556Z,99.90
2019-03-04T20:20:32.582Z,99.90
2019-03-04T20:23:03.032Z,99.90
2019-03-04T20:25:33.806Z,99.90
2019-03-04T20:28:04.306Z,99.90
2019-03-04T20:30:34.829Z,99.90
2019-03-04T20:33:05.320Z,99.90
2019-03-04T20:35:35.718Z,99.90
2019-03-04T20:38:06.166Z,99.90
2019-03-04T20:40:36.575Z,99.90
2019-03-04T20:43:06.972Z,99.90
2019-03-04T20:45:37.362Z,99.90
2019-03-04T20:48:08.009Z,99.90
2019-03-04T20:50:38.397Z,99.90
2019-03-04T20:53:08.867Z,99.90
2019-03-04T20:55:39.341Z,99.90
2019-03-04T20:58:09.766Z,99.90
2019-03-04T21:00:40.700Z,99.90
2019-03-04T21:03:11.215Z,99.90
2019-03-04T21:05:42.322Z,99.90
2019-03-04T21:08:12.823Z,99.90
2019-03-04T21:10:43.227Z,99.90
2019-03-04T21:13:34.906Z,99.90
2019-03-04T21:15:56.251Z,99.90
2019-03-04T21:18:26.656Z,99.90
2019-03-04T21:20:57.129Z,99.90
2019-03-04T21:23:27.550Z,99.90
2019-03-04T21:26:25.004Z,99.90
2019-03-04T21:29:29.864Z,99.90
2019-03-04T21:32:07.858Z,99.90
2019-03-04T21:35:05.155Z,99.90
2019-03-04T21:37:38.986Z,99.90
2019-03-04T21:40:22.598Z,99.90
2019-03-04T21:43:03.552Z,99.90
2019-03-04T21:45:47.727Z,99.90
2019-03-04T21:48:39.418Z,99.90
2019-03-04T21:51:38.477Z,99.90
2019-03-04T21:54:08.493Z,99.90
2019-03-04T21:57:30.655Z,99.90
2019-03-04T22:00:01.534Z,99.90
2019-03-04T22:02:42.312Z,99.90
2019-03-04T22:05:14.102Z,98.70
2019-03-04T22:07:44.578Z,95.90
2019-03-04T22:10:14.979Z,92.50
2019-03-04T22:12:46.228Z,70.30
2019-03-04T22:15:17.588Z,78.60
2019-03-04T22:17:48.092Z,69.40
2019-03-04T22:20:18.559Z,51.90
2019-03-04T22:22:50.065Z,63.50
2019-03-04T22:25:20.612Z,41.30
2019-03-04T22:27:50.989Z,46.00
2019-03-04T22:30:21.388Z,38.80
2019-03-04T22:32:51.814Z,30.40
2019-03-04T22:35:22.197Z,46.90
2019-03-04T22:37:53.269Z,48.40
2019-03-04T22:40:23.976Z,52.80
2019-03-04T22:42:57.697Z,49.80
2019-03-04T22:45:28.063Z,39.90
2019-03-04T22:47:58.543Z,24.80
2019-03-04T22:50:28.961Z,31.80
2019-03-04T22:52:59.365Z,39.00
2019-03-04T22:55:31.953Z,29.70
2019-03-04T22:58:02.461Z,12.70
2019-03-04T23:01:29.262Z,8.80
2019-03-04T23:04:20.627Z,4.80
2019-03-04T23:07:05.908Z,1.00
2019-03-04T23:09:42.087Z,1.00
2019-03-04T23:12:18.804Z,1.00
2019-03-04T23:14:49.661Z,1.00
2019-03-04T23:17:20.029Z,1.00
2019-03-04T23:19:50.395Z,1.00
2019-03-04T23:22:20.751Z,1.00
2019-03-04T23:24:51.250Z,1.00
2019-03-04T23:27:21.598Z,1.00
2019-03-04T23:29:51.966Z,3.60
2019-03-04T23:32:22.317Z,4.50
2019-03-04T23:34:52.684Z,1.00
2019-03-04T23:37:23.050Z,1.00
2019-03-04T23:39:53.516Z,1.00
2019-03-04T23:42:23.966Z,1.00
2019-03-04T23:44:54.350Z,1.00
2019-03-04T23:47:24.725Z,1.00
2019-03-04T23:50:15.678Z,1.00
2019-03-04T23:52:46.025Z,1.00
2019-03-04T23:55:16.818Z,1.00
2019-03-04T23:57:49.404Z,1.00
